Weather at Annie Penn Hospital Heliport [CLOSED]

Public forecast

Using degrees Fahrenheit for public forecast. Weather courtesy of forecast.io.

Closest aviation weather report (METAR) to Annie Penn Hospital Heliport

Closest report is Rockingham County NC Shiloh Airport, 10.2 nm (18.9 km) WNW. Retrieved 2020/09/23 00:35 UTC (0 seconds ago):

KSIF 230035Z AUTO 00000KT 10SM CLR 13/12 A3010 RMK AO2 T01280121

Closest aviation forecast (TAF) to Annie Penn Hospital Heliport

Closest forecast is Piedmont Triad International Airport, 20.2 nm (37.4 km) SW. Retrieved 2020-09-23 00:22 UTC (0 seconds ago):

TAF KGSO 222320Z 2300/2324 26003KT P6SM BKN250